KORB

Orr Regional Airport

Orr, Minnesota, USA
METAR KORB 231053Z AUTO 00000KT 10SM CLR M17/M20 A2998 RMK AO2
Observed Flight Rules
Jan-23 @ 10:53 UTC (57 minutes ago) Visual Flight Rules
Wind Visibility Clouds
Calm 10 miles
  • Clear skies
Temperatures Readings
Current -17°C / 1°F
Dewpoint -20°C / -4°F
Humidity 78%
Altimeter 29.98" Hg
Pressure 1015 hPa
Elevation 397
METAR KORB 231053Z AUTO 00000KT 10SM CLR M17/M20 A2998 RMK AO2
Observed Flight Rules
Jan-23 @ 10:53 UTC
(57 minutes ago)
VFR
Wind Visibility
Calm 10 miles
Clouds
  • Clear skies
Temperature Dewpoint
-17°C / 1°F -20°C / -4°F
Humidity Altimeter Pressure
78% 29.98" Hg 1015 hPa